createdAt,value
2022-10-04T00:00:14.368Z,84.03
2022-10-04T00:01:14.311Z,84.00
2022-10-04T00:02:14.375Z,84.00
2022-10-04T00:03:14.336Z,84.00
2022-10-04T00:04:14.273Z,84.00
2022-10-04T00:05:14.325Z,84.00
2022-10-04T00:06:14.267Z,84.20
2022-10-04T00:07:14.307Z,84.00
2022-10-04T00:08:14.232Z,83.83
2022-10-04T00:09:14.294Z,84.00
2022-10-04T00:10:14.215Z,84.00
2022-10-04T00:11:14.288Z,84.30
2022-10-04T00:12:14.189Z,84.00
2022-10-04T00:13:14.184Z,84.00
2022-10-04T00:14:14.164Z,83.79
2022-10-04T00:15:14.235Z,84.00
2022-10-04T00:16:14.218Z,84.09
2022-10-04T00:17:14.190Z,83.69
2022-10-04T00:18:14.142Z,83.69
2022-10-04T00:19:14.136Z,83.69
2022-10-04T00:20:14.100Z,84.00
2022-10-04T00:21:14.085Z,83.79
2022-10-04T00:22:14.101Z,84.03
2022-10-04T00:23:14.147Z,83.69
2022-10-04T00:24:14.085Z,84.09
2022-10-04T00:25:14.041Z,84.09
2022-10-04T00:26:14.031Z,83.89
2022-10-04T00:27:14.022Z,84.14
2022-10-04T00:28:14.069Z,83.79
2022-10-04T00:29:14.087Z,83.69
2022-10-04T00:30:13.986Z,83.83
2022-10-04T00:31:14.017Z,84.03
2022-10-04T00:32:13.967Z,84.00
2022-10-04T00:33:13.974Z,84.00
2022-10-04T00:34:13.970Z,84.00
2022-10-04T00:35:13.958Z,83.83
2022-10-04T00:36:13.919Z,84.24
2022-10-04T00:37:13.932Z,84.00
2022-10-04T00:38:13.927Z,84.00
2022-10-04T00:39:13.890Z,84.14
2022-10-04T00:40:13.880Z,84.03
2022-10-04T00:41:13.951Z,84.03
2022-10-04T00:42:13.851Z,84.03
2022-10-04T00:43:21.542Z,84.03
2022-10-04T00:44:20.820Z,84.34
2022-10-04T00:45:20.814Z,84.28
2022-10-04T00:46:21.300Z,84.14
2022-10-04T00:47:13.806Z,84.48
2022-10-04T00:48:13.780Z,84.28
2022-10-04T00:49:13.776Z,84.79
2022-10-04T00:50:13.781Z,84.55
2022-10-04T00:51:13.748Z,84.58
2022-10-04T00:52:13.753Z,84.58
2022-10-04T00:53:13.751Z,84.69
2022-10-04T00:54:13.723Z,84.65
2022-10-04T00:55:13.729Z,84.58
2022-10-04T00:56:13.693Z,84.75
2022-10-04T00:57:13.796Z,84.75
2022-10-04T00:58:13.707Z,84.85
2022-10-04T00:59:13.826Z,84.24
2022-10-04T01:00:13.646Z,84.24
2022-10-04T01:01:13.697Z,84.44
2022-10-04T01:02:13.721Z,84.34
2022-10-04T01:03:13.637Z,84.34
2022-10-04T01:04:13.621Z,84.34
2022-10-04T01:05:13.615Z,84.55
2022-10-04T01:06:13.612Z,84.55
2022-10-04T01:07:13.573Z,84.20
2022-10-04T01:08:13.559Z,84.41
2022-10-04T01:09:13.551Z,84.65
2022-10-04T01:10:13.569Z,84.44
2022-10-04T01:11:14.160Z,84.34
2022-10-04T01:12:13.537Z,84.30
2022-10-04T01:13:13.497Z,84.61
2022-10-04T01:14:13.494Z,84.61
2022-10-04T01:15:13.479Z,84.50
2022-10-04T01:16:13.513Z,84.30
2022-10-04T01:17:13.461Z,84.50
2022-10-04T01:18:13.457Z,84.30
2022-10-04T01:19:13.530Z,84.50
2022-10-04T01:20:13.418Z,84.14
2022-10-04T01:21:13.438Z,84.50
2022-10-04T01:22:13.461Z,84.44
2022-10-04T01:23:13.386Z,84.14
2022-10-04T01:24:13.405Z,84.44
2022-10-04T01:25:13.369Z,84.34
2022-10-04T01:26:13.358Z,84.34
2022-10-04T01:27:13.349Z,84.44
2022-10-04T01:28:13.572Z,84.44
2022-10-04T01:29:13.328Z,84.14
2022-10-04T01:30:13.314Z,84.44
2022-10-04T01:31:13.336Z,84.14
2022-10-04T01:32:13.307Z,83.73
2022-10-04T01:33:13.278Z,84.09
2022-10-04T01:34:13.328Z,83.93
2022-10-04T01:35:13.256Z,83.79
2022-10-04T01:36:13.247Z,83.89
2022-10-04T01:37:13.236Z,83.93
2022-10-04T01:38:13.286Z,84.03
2022-10-04T01:39:13.207Z,83.79
2022-10-04T01:40:13.247Z,84.03
2022-10-04T01:41:13.184Z,84.09
2022-10-04T01:42:13.241Z,83.79
2022-10-04T01:43:13.174Z,83.79
2022-10-04T01:44:13.155Z,83.89
2022-10-04T01:45:13.145Z,83.93
2022-10-04T01:46:13.377Z,84.24
2022-10-04T01:47:13.122Z,83.69
2022-10-04T01:48:13.203Z,83.89
2022-10-04T01:49:13.102Z,84.09
2022-10-04T01:50:15.814Z,84.44
2022-10-04T01:51:13.081Z,84.55
2022-10-04T01:52:13.110Z,84.41
2022-10-04T01:53:13.056Z,84.30
2022-10-04T01:54:13.064Z,84.34
2022-10-04T01:55:13.106Z,84.30
2022-10-04T01:56:13.020Z,84.20
2022-10-04T01:57:13.071Z,84.30
2022-10-04T01:58:13.013Z,84.30
2022-10-04T01:59:13.014Z,84.09
2022-10-04T02:00:12.968Z,84.20
2022-10-04T02:01:13.103Z,84.20
2022-10-04T02:02:12.962Z,84.24
2022-10-04T02:03:12.946Z,84.41
2022-10-04T02:04:13.001Z,84.34
2022-10-04T02:05:12.915Z,83.89
2022-10-04T02:06:12.921Z,84.14
2022-10-04T02:07:12.902Z,83.69
2022-10-04T02:08:12.884Z,84.00
2022-10-04T02:09:12.883Z,84.20
2022-10-04T02:10:12.901Z,84.03
2022-10-04T02:11:12.951Z,84.30
2022-10-04T02:12:12.845Z,84.20
2022-10-04T02:13:12.848Z,84.30
2022-10-04T02:14:12.822Z,84.00
2022-10-04T02:15:12.809Z,84.41
2022-10-04T02:16:12.912Z,84.41
2022-10-04T02:17:12.896Z,84.20
2022-10-04T02:18:12.773Z,83.69
2022-10-04T02:19:12.763Z,84.20
2022-10-04T02:20:12.749Z,84.00
2022-10-04T02:21:13.675Z,84.09
2022-10-04T02:22:12.764Z,83.89
2022-10-04T02:23:12.721Z,84.00
2022-10-04T02:24:12.713Z,84.41
2022-10-04T02:25:12.698Z,84.09
2022-10-04T02:26:12.729Z,84.00
2022-10-04T02:27:12.672Z,84.00
2022-10-04T02:28:12.791Z,84.20
2022-10-04T02:29:12.654Z,84.30
2022-10-04T02:30:12.657Z,84.41
2022-10-04T02:31:12.743Z,84.30
2022-10-04T02:32:12.612Z,84.50
2022-10-04T02:33:12.608Z,84.50
2022-10-04T02:34:12.639Z,84.41
2022-10-04T02:35:12.604Z,84.00
2022-10-04T02:36:12.576Z,83.79
2022-10-04T02:37:12.563Z,84.09
2022-10-04T02:38:12.576Z,83.89
2022-10-04T02:39:12.532Z,83.89
2022-10-04T02:40:12.680Z,83.89
2022-10-04T02:41:12.514Z,84.03
2022-10-04T02:42:12.542Z,83.69
2022-10-04T02:43:12.500Z,83.73
2022-10-04T02:44:12.507Z,83.93
2022-10-04T02:45:12.477Z,84.03
2022-10-04T02:46:12.536Z,84.55
2022-10-04T02:47:12.449Z,84.44
2022-10-04T02:48:12.539Z,84.58
2022-10-04T02:49:12.427Z,84.58
2022-10-04T02:50:12.448Z,84.69
2022-10-04T02:51:12.407Z,84.38
2022-10-04T02:52:12.461Z,84.79
2022-10-04T02:53:12.382Z,84.79
2022-10-04T02:54:12.372Z,84.58
2022-10-04T02:55:12.357Z,84.58
2022-10-04T02:56:12.353Z,84.89
2022-10-04T02:57:12.342Z,84.69
2022-10-04T02:58:12.384Z,84.89
2022-10-04T02:59:12.312Z,84.79
2022-10-04T03:00:12.411Z,84.79
2022-10-04T03:01:12.307Z,84.89
2022-10-04T03:02:12.296Z,84.79
2022-10-04T03:03:12.270Z,84.38
2022-10-04T03:04:12.309Z,84.89
2022-10-04T03:05:12.243Z,84.79
2022-10-04T03:06:12.232Z,84.89
2022-10-04T03:07:12.225Z,84.69
2022-10-04T03:08:12.209Z,84.58
2022-10-04T03:09:12.203Z,84.58
2022-10-04T03:10:12.318Z,84.07
2022-10-04T03:11:12.180Z,84.63
2022-10-04T03:12:12.270Z,84.58
2022-10-04T03:13:12.149Z,84.89
2022-10-04T03:14:12.164Z,84.63
2022-10-04T03:15:12.132Z,84.38
2022-10-04T03:16:12.226Z,84.79
2022-10-04T03:17:12.137Z,84.38
2022-10-04T03:18:12.099Z,84.83
2022-10-04T03:19:12.077Z,84.58
2022-10-04T03:20:12.072Z,84.93
2022-10-04T03:21:12.089Z,84.22
2022-10-04T03:22:12.087Z,84.79
2022-10-04T03:23:12.051Z,84.83
2022-10-04T03:24:12.025Z,84.58
2022-10-04T03:25:12.022Z,84.48
2022-10-04T03:26:12.057Z,84.58
2022-10-04T03:27:11.989Z,84.69
2022-10-04T03:28:12.078Z,84.63
2022-10-04T03:29:11.968Z,84.63
2022-10-04T03:30:12.004Z,84.63
2022-10-04T03:31:11.976Z,84.72
2022-10-04T03:32:11.935Z,84.72
2022-10-04T03:33:11.924Z,84.63
2022-10-04T03:34:11.964Z,84.63
2022-10-04T03:35:11.902Z,84.52
2022-10-04T03:36:11.998Z,84.63
2022-10-04T03:37:11.875Z,84.93
2022-10-04T03:38:11.866Z,84.83
2022-10-04T03:39:11.855Z,84.72
2022-10-04T03:40:11.860Z,84.72
2022-10-04T03:41:11.929Z,84.66
2022-10-04T03:42:11.819Z,84.97
2022-10-04T03:43:11.813Z,84.77
2022-10-04T03:44:11.795Z,84.87
2022-10-04T03:45:11.781Z,84.97
2022-10-04T03:46:11.929Z,84.97
2022-10-04T03:47:11.775Z,84.97
2022-10-04T03:48:11.851Z,84.77
2022-10-04T03:49:11.743Z,84.70
2022-10-04T03:50:11.731Z,84.56
2022-10-04T03:51:11.734Z,84.80
2022-10-04T03:52:11.848Z,84.77
2022-10-04T03:53:11.692Z,84.77
2022-10-04T03:54:11.699Z,84.60
2022-10-04T03:55:11.674Z,84.66
2022-10-04T03:56:11.662Z,84.66
2022-10-04T03:57:11.650Z,85.01
2022-10-04T03:58:11.741Z,84.56
2022-10-04T03:59:11.626Z,84.97
2022-10-04T04:00:11.709Z,84.50
2022-10-04T04:01:11.671Z,84.66
2022-10-04T04:02:11.766Z,85.01
2022-10-04T04:03:11.576Z,84.97
2022-10-04T04:04:11.618Z,85.01
2022-10-04T04:05:11.554Z,84.66
2022-10-04T04:06:11.547Z,84.97
2022-10-04T04:07:11.533Z,84.60
2022-10-04T04:08:11.547Z,84.46
2022-10-04T04:09:11.510Z,84.56
2022-10-04T04:10:16.029Z,84.87
2022-10-04T04:11:12.487Z,84.87
2022-10-04T04:12:11.469Z,84.77
2022-10-04T04:13:11.493Z,84.87
2022-10-04T04:14:11.451Z,84.66
2022-10-04T04:15:11.463Z,84.25
2022-10-04T04:16:11.540Z,84.36
2022-10-04T04:17:11.424Z,84.42
2022-10-04T04:18:11.533Z,84.46
2022-10-04T04:19:11.394Z,84.25
2022-10-04T04:20:11.526Z,84.22
2022-10-04T04:21:11.379Z,84.83
2022-10-04T04:22:11.457Z,84.22
2022-10-04T04:23:11.358Z,84.93
2022-10-04T04:24:11.339Z,84.97
2022-10-04T04:25:11.326Z,84.93
2022-10-04T04:26:11.321Z,84.42
2022-10-04T04:27:11.314Z,84.22
2022-10-04T04:28:11.355Z,84.63
2022-10-04T04:29:11.317Z,84.25
2022-10-04T04:30:11.277Z,84.22
2022-10-04T04:31:11.346Z,84.63
2022-10-04T04:32:11.351Z,84.72
2022-10-04T04:33:11.357Z,84.22
2022-10-04T04:34:11.269Z,84.63
2022-10-04T04:35:11.235Z,84.63
2022-10-04T04:36:11.204Z,84.83
2022-10-04T04:37:11.190Z,84.42
2022-10-04T04:38:11.196Z,84.93
2022-10-04T04:39:11.183Z,84.42
2022-10-04T04:40:11.199Z,84.66
2022-10-04T04:41:11.167Z,84.42
2022-10-04T04:42:11.149Z,84.25
2022-10-04T04:43:11.123Z,84.77
2022-10-04T04:44:11.178Z,84.66
2022-10-04T04:45:11.101Z,84.66
2022-10-04T04:46:28.139Z,84.56
2022-10-04T04:47:15.198Z,84.97
2022-10-04T04:48:12.068Z,84.46
2022-10-04T04:49:11.050Z,84.97
2022-10-04T04:50:11.065Z,85.07
2022-10-04T04:51:11.024Z,85.07
2022-10-04T04:52:11.028Z,84.66
2022-10-04T04:53:11.013Z,84.63
2022-10-04T04:54:11.000Z,84.72
2022-10-04T04:55:10.983Z,84.52
2022-10-04T04:56:13.446Z,84.63
2022-10-04T04:57:10.959Z,84.63
2022-10-04T04:58:10.989Z,84.42
2022-10-04T04:59:10.941Z,84.42
2022-10-04T05:00:10.949Z,84.93
2022-10-04T05:01:10.978Z,84.93
2022-10-04T05:02:10.959Z,84.69
2022-10-04T05:03:10.901Z,84.52
2022-10-04T05:04:10.956Z,84.69
2022-10-04T05:05:10.873Z,84.48
2022-10-04T05:06:10.886Z,84.58
2022-10-04T05:07:10.855Z,84.89
2022-10-04T05:08:10.850Z,84.89
2022-10-04T05:09:10.824Z,84.79
2022-10-04T05:10:10.829Z,84.48
2022-10-04T05:11:10.802Z,84.48
2022-10-04T05:12:10.810Z,84.34
2022-10-04T05:13:10.781Z,84.34
2022-10-04T05:14:10.788Z,84.75
2022-10-04T05:15:11.205Z,84.75
2022-10-04T05:16:10.851Z,84.55
2022-10-04T05:17:10.737Z,84.34
2022-10-04T05:18:10.736Z,84.34
2022-10-04T05:19:10.714Z,84.65
2022-10-04T05:20:10.699Z,84.50
2022-10-04T05:21:10.695Z,83.89
2022-10-04T05:22:10.748Z,83.69
2022-10-04T05:23:10.772Z,83.79
2022-10-04T05:24:18.140Z,84.41
2022-10-04T05:25:18.294Z,84.50
2022-10-04T05:26:17.621Z,84.20
2022-10-04T05:27:10.628Z,84.09
2022-10-04T05:28:17.947Z,84.30
2022-10-04T05:29:10.600Z,84.00
2022-10-04T05:30:10.583Z,84.30
2022-10-04T05:31:10.576Z,84.50
2022-10-04T05:32:10.664Z,84.30
2022-10-04T05:33:10.567Z,84.61
2022-10-04T05:34:10.560Z,84.61
2022-10-04T05:35:10.530Z,84.47
2022-10-04T05:36:10.545Z,83.75
2022-10-04T05:37:10.618Z,84.36
2022-10-04T05:38:10.534Z,83.95
2022-10-04T05:39:10.497Z,83.65
2022-10-04T05:40:10.505Z,84.06
2022-10-04T05:41:10.492Z,83.75
2022-10-04T05:42:10.450Z,84.16
2022-10-04T05:43:10.463Z,84.36
2022-10-04T05:44:10.438Z,84.26
2022-10-04T05:45:10.417Z,83.71
2022-10-04T05:46:10.552Z,84.01
2022-10-04T05:47:10.616Z,83.71
2022-10-04T05:48:10.407Z,84.01
2022-10-04T05:49:10.402Z,83.92
2022-10-04T05:50:10.356Z,83.92
2022-10-04T05:51:10.351Z,83.92
2022-10-04T05:52:10.369Z,83.71
2022-10-04T05:53:10.343Z,83.78
2022-10-04T05:54:10.914Z,83.78
2022-10-04T05:55:10.321Z,84.12
2022-10-04T05:56:10.290Z,84.18
2022-10-04T05:57:10.279Z,84.28
2022-10-04T05:58:10.296Z,84.39
2022-10-04T05:59:10.279Z,84.28
2022-10-04T06:00:10.265Z,84.04
2022-10-04T06:01:10.373Z,84.04
2022-10-04T06:02:10.286Z,84.25
2022-10-04T06:03:10.207Z,84.25
2022-10-04T06:04:10.258Z,84.25
2022-10-04T06:05:10.197Z,84.14
2022-10-04T06:06:10.173Z,84.25
2022-10-04T06:07:10.172Z,83.84
2022-10-04T06:08:10.153Z,83.73
2022-10-04T06:09:10.139Z,84.04
2022-10-04T06:10:10.215Z,83.53
2022-10-04T06:11:10.117Z,83.94
2022-10-04T06:12:10.115Z,83.73
2022-10-04T06:13:10.097Z,83.94
2022-10-04T06:14:10.082Z,84.04
2022-10-04T06:15:10.102Z,83.53
2022-10-04T06:16:10.077Z,83.57
2022-10-04T06:17:10.136Z,84.04
2022-10-04T06:18:10.040Z,83.63
2022-10-04T06:19:10.168Z,84.14
2022-10-04T06:20:10.022Z,84.04
2022-10-04T06:21:10.036Z,83.70
2022-10-04T06:22:10.025Z,83.80
2022-10-04T06:23:10.145Z,83.80
2022-10-04T06:24:09.977Z,83.90
2022-10-04T06:25:09.960Z,84.06
2022-10-04T06:26:09.997Z,83.90
2022-10-04T06:27:09.937Z,83.56
2022-10-04T06:28:10.054Z,83.92
2022-10-04T06:29:09.919Z,83.42
2022-10-04T06:30:09.941Z,83.82
2022-10-04T06:31:09.933Z,82.87
2022-10-04T06:32:09.880Z,82.73
2022-10-04T06:33:09.870Z,82.82
2022-10-04T06:34:09.898Z,82.42
2022-10-04T06:35:09.847Z,82.59
2022-10-04T06:36:09.840Z,82.59
2022-10-04T06:37:09.831Z,82.99
2022-10-04T06:38:09.817Z,82.99
2022-10-04T06:39:09.804Z,82.79
2022-10-04T06:40:09.834Z,82.89
2022-10-04T06:41:09.778Z,83.09
2022-10-04T06:42:09.825Z,82.79
2022-10-04T06:43:09.760Z,83.09
2022-10-04T06:44:09.747Z,82.99
2022-10-04T06:45:09.751Z,83.64
2022-10-04T06:46:09.841Z,83.70
2022-10-04T06:47:09.710Z,83.40
2022-10-04T06:48:09.710Z,83.50
2022-10-04T06:49:09.686Z,83.50
2022-10-04T06:50:09.682Z,83.50
2022-10-04T06:51:09.663Z,83.44
2022-10-04T06:52:09.717Z,83.74
2022-10-04T06:53:09.639Z,83.50
2022-10-04T06:54:09.651Z,83.74
2022-10-04T06:55:09.644Z,83.81
2022-10-04T06:56:09.609Z,83.60
2022-10-04T06:57:09.605Z,83.60
2022-10-04T06:58:09.647Z,83.40
2022-10-04T06:59:09.571Z,83.70
2022-10-04T07:00:09.568Z,83.81
2022-10-04T07:01:09.641Z,83.60
2022-10-04T07:02:09.607Z,83.81
2022-10-04T07:03:09.565Z,83.36
2022-10-04T07:04:09.667Z,84.11
2022-10-04T07:05:09.916Z,83.09
2022-10-04T07:06:09.505Z,82.99
2022-10-04T07:07:09.513Z,82.95
2022-10-04T07:08:09.477Z,82.85
2022-10-04T07:09:09.464Z,82.95
2022-10-04T07:10:09.472Z,83.06
2022-10-04T07:11:12.332Z,83.67
2022-10-04T07:12:09.428Z,83.76
2022-10-04T07:13:09.432Z,83.76
2022-10-04T07:14:09.470Z,83.76
2022-10-04T07:15:09.394Z,83.67
2022-10-04T07:16:09.528Z,83.76
2022-10-04T07:17:09.369Z,83.46
2022-10-04T07:18:09.414Z,83.73
2022-10-04T07:19:09.348Z,83.76
2022-10-04T07:20:09.356Z,83.12
2022-10-04T07:21:09.339Z,82.81
2022-10-04T07:22:09.319Z,83.32
2022-10-04T07:23:09.325Z,83.32
2022-10-04T07:24:09.296Z,83.73
2022-10-04T07:25:09.368Z,83.62
2022-10-04T07:26:09.267Z,83.53
2022-10-04T07:27:09.272Z,83.46
2022-10-04T07:28:09.296Z,83.53
2022-10-04T07:29:09.238Z,83.83
2022-10-04T07:30:09.242Z,83.62
2022-10-04T07:31:09.371Z,83.73
2022-10-04T07:32:09.197Z,83.32
2022-10-04T07:33:09.234Z,82.71
2022-10-04T07:34:09.187Z,82.98
2022-10-04T07:35:09.157Z,82.67
2022-10-04T07:36:09.151Z,82.67
2022-10-04T07:37:09.906Z,82.67
2022-10-04T07:38:09.130Z,82.57
2022-10-04T07:39:09.151Z,82.87
2022-10-04T07:40:09.338Z,83.18
2022-10-04T07:41:09.107Z,83.34
2022-10-04T07:42:09.089Z,83.69
2022-10-04T07:43:09.071Z,83.79
2022-10-04T07:44:09.090Z,83.69
2022-10-04T07:45:09.074Z,83.38
2022-10-04T07:46:09.290Z,83.18
2022-10-04T07:47:09.062Z,83.48
2022-10-04T07:48:09.033Z,83.04
2022-10-04T07:49:09.047Z,83.54
2022-10-04T07:50:08.998Z,82.73
2022-10-04T07:51:08.982Z,82.73
2022-10-04T07:52:09.010Z,83.04
2022-10-04T07:53:09.744Z,82.73
2022-10-04T07:54:08.954Z,82.94
2022-10-04T07:55:08.941Z,83.14
2022-10-04T07:56:08.927Z,82.80
2022-10-04T07:57:08.911Z,82.70
2022-10-04T07:58:08.940Z,82.59
2022-10-04T07:59:08.892Z,82.80
2022-10-04T08:00:08.879Z,82.45
2022-10-04T08:01:08.871Z,82.56
2022-10-04T08:02:09.088Z,82.45
2022-10-04T08:03:08.940Z,82.05
2022-10-04T08:04:08.973Z,82.11
2022-10-04T08:05:08.820Z,82.17
2022-10-04T08:06:08.806Z,81.97
2022-10-04T08:07:08.805Z,81.87
2022-10-04T08:08:08.786Z,82.03
2022-10-04T08:09:08.803Z,81.63
2022-10-04T08:10:08.807Z,81.39
2022-10-04T08:11:08.772Z,81.39
2022-10-04T08:12:08.743Z,81.59
2022-10-04T08:13:08.729Z,81.49
2022-10-04T08:14:08.720Z,81.49
2022-10-04T08:15:08.713Z,81.65
2022-10-04T08:16:08.766Z,81.45
2022-10-04T08:17:11.913Z,81.96
2022-10-04T08:18:09.694Z,81.65
2022-10-04T08:19:08.663Z,81.65
2022-10-04T08:20:08.656Z,81.15
2022-10-04T08:21:08.638Z,81.45
2022-10-04T08:22:08.782Z,81.65
2022-10-04T08:23:08.612Z,81.65
2022-10-04T08:24:08.607Z,81.41
2022-10-04T08:25:08.618Z,81.82
2022-10-04T08:26:08.585Z,81.45
2022-10-04T08:27:08.580Z,81.76
2022-10-04T08:28:08.675Z,81.71
2022-10-04T08:29:08.545Z,81.92
2022-10-04T08:30:08.566Z,81.65
2022-10-04T08:31:08.583Z,81.76
2022-10-04T08:32:08.516Z,81.85
2022-10-04T08:33:08.508Z,81.55
2022-10-04T08:34:08.534Z,81.96
2022-10-04T08:35:08.503Z,81.96
2022-10-04T08:36:08.467Z,82.26
2022-10-04T08:37:08.464Z,81.85
2022-10-04T08:38:08.460Z,81.85
2022-10-04T08:39:08.440Z,82.06
2022-10-04T08:40:12.660Z,82.02
2022-10-04T08:41:08.429Z,82.02
2022-10-04T08:42:08.399Z,81.92
2022-10-04T08:43:08.402Z,81.92
2022-10-04T08:44:08.397Z,82.08
2022-10-04T08:45:08.368Z,81.88
2022-10-04T08:46:08.484Z,81.48
2022-10-04T08:47:08.354Z,81.68
2022-10-04T08:48:08.405Z,81.48
2022-10-04T08:49:08.324Z,81.57
2022-10-04T08:50:08.332Z,81.64
2022-10-04T08:51:08.301Z,81.64
2022-10-04T08:52:08.342Z,81.64
2022-10-04T08:53:10.912Z,81.54
2022-10-04T08:54:08.268Z,81.64
2022-10-04T08:55:08.254Z,81.70
2022-10-04T08:56:08.256Z,81.60
2022-10-04T08:57:11.232Z,81.10
2022-10-04T08:58:09.251Z,81.16
2022-10-04T08:59:08.230Z,80.96
2022-10-04T09:00:08.201Z,80.96
2022-10-04T09:01:08.236Z,81.16
2022-10-04T09:02:08.180Z,81.20
2022-10-04T09:03:08.391Z,81.10
2022-10-04T09:04:08.176Z,80.90
2022-10-04T09:05:08.140Z,80.90
2022-10-04T09:06:08.152Z,81.10
2022-10-04T09:07:08.122Z,81.23
2022-10-04T09:08:08.105Z,81.54
2022-10-04T09:09:08.091Z,81.78
2022-10-04T09:10:08.142Z,81.48
2022-10-04T09:11:08.068Z,81.68
2022-10-04T09:12:08.075Z,82.42
2022-10-04T09:13:08.045Z,82.12
2022-10-04T09:14:08.034Z,82.67
2022-10-04T09:15:08.041Z,82.56
2022-10-04T09:16:08.174Z,82.46
2022-10-04T09:17:08.007Z,83.01
2022-10-04T09:18:07.993Z,83.31
2022-10-04T09:19:07.976Z,83.35
2022-10-04T09:20:33.355Z,83.15
2022-10-04T09:21:09.000Z,83.15
2022-10-04T09:22:07.972Z,83.25
2022-10-04T09:23:07.932Z,83.45
2022-10-04T09:24:07.941Z,83.35
2022-10-04T09:25:07.919Z,83.29
2022-10-04T09:26:07.910Z,83.59
2022-10-04T09:27:07.905Z,83.59
2022-10-04T09:28:07.939Z,83.49
2022-10-04T09:29:07.866Z,83.29
2022-10-04T09:30:07.854Z,83.09
2022-10-04T09:31:07.935Z,83.49
2022-10-04T09:32:07.831Z,83.39
2022-10-04T09:33:07.949Z,83.18
2022-10-04T09:34:07.815Z,83.35
2022-10-04T09:35:07.797Z,83.45
2022-10-04T09:36:07.792Z,82.84
2022-10-04T09:37:07.797Z,82.84
2022-10-04T09:38:07.885Z,82.54
2022-10-04T09:39:28.893Z,82.75
2022-10-04T09:40:08.737Z,82.44
2022-10-04T09:41:07.843Z,82.75
2022-10-04T09:42:07.752Z,82.54
2022-10-04T09:43:07.719Z,82.30
2022-10-04T09:44:07.698Z,82.20
2022-10-04T09:45:07.717Z,82.40
2022-10-04T09:46:07.764Z,82.20
2022-10-04T09:47:07.662Z,82.10
2022-10-04T09:48:07.679Z,81.96
2022-10-04T09:49:07.660Z,81.55
2022-10-04T09:50:07.633Z,81.76
2022-10-04T09:51:07.639Z,81.85
2022-10-04T09:52:07.705Z,81.96
2022-10-04T09:53:07.595Z,82.56
2022-10-04T09:54:07.649Z,81.96
2022-10-04T09:55:07.572Z,82.56
2022-10-04T09:56:07.569Z,82.26
2022-10-04T09:57:07.634Z,82.12
2022-10-04T09:58:07.534Z,82.12
2022-10-04T09:59:07.548Z,81.82
2022-10-04T10:00:07.522Z,82.32
2022-10-04T10:01:07.503Z,81.88
2022-10-04T10:02:07.588Z,81.68
2022-10-04T10:03:10.938Z,81.34
2022-10-04T10:04:08.468Z,81.23
2022-10-04T10:05:14.451Z,80.53
2022-10-04T10:06:07.443Z,81.23
2022-10-04T10:07:07.441Z,81.03
2022-10-04T10:08:07.480Z,80.83
2022-10-04T10:09:07.442Z,81.03
2022-10-04T10:10:07.421Z,81.23
2022-10-04T10:11:07.387Z,81.44
2022-10-04T10:12:07.402Z,81.44
2022-10-04T10:13:07.367Z,81.54
2022-10-04T10:14:07.368Z,81.84
2022-10-04T10:15:07.454Z,81.84
2022-10-04T10:16:07.406Z,81.74
2022-10-04T10:17:07.345Z,81.60
2022-10-04T10:18:07.317Z,81.50
2022-10-04T10:19:07.297Z,80.90
2022-10-04T10:20:07.298Z,81.20
2022-10-04T10:21:07.325Z,80.96
2022-10-04T10:22:07.257Z,81.05
2022-10-04T10:23:07.263Z,81.16
2022-10-04T10:24:07.271Z,81.16
2022-10-04T10:25:07.261Z,81.56
2022-10-04T10:26:07.249Z,81.80
2022-10-04T10:27:07.270Z,81.60
2022-10-04T10:28:07.254Z,82.14
2022-10-04T10:29:07.200Z,82.04
2022-10-04T10:30:07.172Z,82.14
2022-10-04T10:31:07.298Z,82.28
2022-10-04T10:32:07.148Z,82.39
2022-10-04T10:33:07.163Z,82.59
2022-10-04T10:34:07.126Z,82.69
2022-10-04T10:35:07.156Z,82.59
2022-10-04T10:36:07.102Z,82.18
2022-10-04T10:37:07.090Z,81.60
2022-10-04T10:38:07.084Z,81.36
2022-10-04T10:39:07.120Z,80.85
2022-10-04T10:40:07.065Z,81.02
2022-10-04T10:41:07.049Z,81.02
2022-10-04T10:42:07.076Z,81.02
2022-10-04T10:43:07.023Z,81.02
2022-10-04T10:44:07.026Z,80.68
2022-10-04T10:45:07.035Z,81.08
2022-10-04T10:46:07.042Z,80.58
2022-10-04T10:47:06.983Z,80.38
2022-10-04T10:48:06.963Z,81.08
2022-10-04T10:49:06.957Z,80.92
2022-10-04T10:50:06.949Z,81.12
2022-10-04T10:51:06.946Z,81.42
2022-10-04T10:52:06.945Z,81.56
2022-10-04T10:53:06.915Z,81.56
2022-10-04T10:54:06.911Z,81.36
2022-10-04T10:55:06.889Z,81.67
2022-10-04T10:56:07.037Z,81.90
2022-10-04T10:57:06.894Z,81.90
2022-10-04T10:58:07.548Z,81.70
2022-10-04T10:59:06.846Z,81.80
2022-10-04T11:00:06.856Z,81.90
2022-10-04T11:01:06.817Z,81.74
2022-10-04T11:02:06.940Z,81.70
2022-10-04T11:03:13.683Z,81.80
2022-10-04T11:04:07.864Z,81.90
2022-10-04T11:05:07.540Z,81.60
2022-10-04T11:06:06.761Z,81.46
2022-10-04T11:07:06.755Z,80.96
2022-10-04T11:08:06.748Z,81.02
2022-10-04T11:09:06.936Z,80.92
2022-10-04T11:10:06.714Z,80.62
2022-10-04T11:11:06.710Z,80.98
2022-10-04T11:12:06.692Z,80.38
2022-10-04T11:13:06.685Z,80.64
2022-10-04T11:14:06.716Z,80.44
2022-10-04T11:15:06.694Z,80.64
2022-10-04T11:16:06.776Z,80.54
2022-10-04T11:17:06.642Z,80.60
2022-10-04T11:18:06.631Z,80.70
2022-10-04T11:19:06.608Z,80.66
2022-10-04T11:20:06.604Z,79.96
2022-10-04T11:21:06.604Z,79.80
2022-10-04T11:22:06.574Z,80.66
2022-10-04T11:23:06.571Z,79.76
2022-10-04T11:24:06.638Z,80.77
2022-10-04T11:25:06.541Z,80.66
2022-10-04T11:26:06.711Z,79.76
2022-10-04T11:27:06.540Z,80.57
2022-10-04T11:28:06.578Z,80.66
2022-10-04T11:29:07.023Z,80.66
2022-10-04T11:30:06.510Z,79.76
2022-10-04T11:31:06.579Z,79.56
2022-10-04T11:32:06.471Z,79.66
2022-10-04T11:33:06.464Z,80.77
2022-10-04T11:34:06.447Z,80.46
2022-10-04T11:35:06.445Z,80.46
2022-10-04T11:36:06.456Z,80.66
2022-10-04T11:37:06.412Z,80.57
2022-10-04T11:38:06.401Z,80.90
2022-10-04T11:39:06.401Z,80.94
2022-10-04T11:40:06.379Z,81.15
2022-10-04T11:41:06.370Z,81.15
2022-10-04T11:42:06.349Z,81.18
2022-10-04T11:43:06.347Z,81.28
2022-10-04T11:44:06.332Z,81.28
2022-10-04T11:45:06.403Z,81.32
2022-10-04T11:46:10.637Z,81.59
2022-10-04T11:47:06.422Z,81.62
2022-10-04T11:48:06.289Z,81.38
2022-10-04T11:49:06.272Z,81.52
2022-10-04T11:50:06.467Z,81.22
2022-10-04T11:51:06.284Z,81.22
2022-10-04T11:52:06.233Z,82.07
2022-10-04T11:53:06.229Z,81.96
2022-10-04T11:54:06.218Z,81.76
2022-10-04T11:55:06.210Z,81.87
2022-10-04T11:56:06.203Z,81.46
2022-10-04T11:57:06.215Z,81.42
2022-10-04T11:58:11.169Z,81.32
2022-10-04T11:59:07.159Z,81.22
2022-10-04T12:00:06.151Z,81.08
2022-10-04T12:01:06.157Z,80.78
2022-10-04T12:02:06.178Z,80.84
2022-10-04T12:03:06.215Z,80.84
2022-10-04T12:04:06.362Z,80.74
2022-10-04T12:05:06.124Z,80.54
2022-10-04T12:06:06.076Z,80.50
2022-10-04T12:07:06.110Z,80.50
2022-10-04T12:08:06.055Z,80.70
2022-10-04T12:09:06.093Z,80.50
2022-10-04T12:10:06.034Z,80.50
2022-10-04T12:11:06.016Z,80.50
2022-10-04T12:12:06.039Z,80.40
2022-10-04T12:13:05.994Z,80.60
2022-10-04T12:14:05.989Z,80.30
2022-10-04T12:15:05.998Z,80.40
2022-10-04T12:16:06.009Z,80.50
2022-10-04T12:17:05.959Z,80.70
2022-10-04T12:18:05.969Z,80.50
2022-10-04T12:19:05.932Z,80.50
2022-10-04T12:20:11.248Z,80.54
2022-10-04T12:21:06.941Z,80.60
2022-10-04T12:22:05.925Z,80.60
2022-10-04T12:23:05.887Z,80.74
2022-10-04T12:24:05.889Z,80.50
2022-10-04T12:25:05.861Z,80.54
2022-10-04T12:26:05.863Z,80.54
2022-10-04T12:27:05.856Z,80.50
2022-10-04T12:28:05.951Z,80.50
2022-10-04T12:29:05.895Z,80.70
2022-10-04T12:30:05.807Z,80.60
2022-10-04T12:31:05.942Z,80.70
2022-10-04T12:32:05.844Z,80.64
2022-10-04T12:33:05.835Z,80.50
2022-10-04T12:34:05.804Z,80.50
2022-10-04T12:35:05.755Z,80.60
2022-10-04T12:36:05.744Z,80.60
2022-10-04T12:37:05.725Z,80.50
2022-10-04T12:38:05.718Z,80.36
2022-10-04T12:39:05.734Z,80.30
2022-10-04T12:40:05.746Z,80.57
2022-10-04T12:41:05.694Z,80.46
2022-10-04T12:42:05.667Z,80.46
2022-10-04T12:43:05.720Z,80.26
2022-10-04T12:44:05.649Z,80.30
2022-10-04T12:45:05.717Z,80.50
2022-10-04T12:46:05.683Z,80.46
2022-10-04T12:47:05.614Z,80.57
2022-10-04T12:48:05.610Z,80.66
2022-10-04T12:49:05.589Z,80.36
2022-10-04T12:50:05.718Z,80.46
2022-10-04T12:51:05.641Z,80.40
2022-10-04T12:52:05.558Z,80.70